Time;durP1;ratioP1;P1;durP2;ratioP2;P2;SDS_P1;SDS_P2;PMS_P1;PMS_P2;Temp;Humidity;BMP_temperature;BMP_pressure;BME280_temperature;BME280_humidity;BME280_pressure;Samples;Min_cycle;Max_cycle;Signal;HPM_P1;HPM_P2
2023/06/21 00:03:52;;;;;;;26.63;11.63;;;23.30;61.00;;;;;;8263261;28;20039;-50
2023/06/21 00:07:54;;;;;;;22.90;11.27;;;23.30;60.90;;;;;;8263225;28;20050;-52
2023/06/21 00:11:55;;;;;;;23.33;10.32;;;23.20;60.70;;;;;;8263239;28;20037;-53
2023/06/21 00:15:56;;;;;;;23.30;10.85;;;23.20;60.70;;;;;;8263044;28;20550;-51
2023/06/21 00:19:57;;;;;;;21.25;10.27;;;23.20;60.70;;;;;;8262868;28;20401;-53
2023/06/21 00:24:01;;;;;;;23.60;10.40;;;23.20;60.70;;;;;;8262999;28;20034;-52
2023/06/21 00:28:02;;;;;;;18.92;9.75;;;23.10;60.60;;;;;;8263009;28;20038;-52
2023/06/21 00:32:03;;;;;;;21.40;10.57;;;23.10;60.60;;;;;;8262604;28;20656;-53
2023/06/21 00:36:04;;;;;;;;;;;23.10;60.70;;;;;;8262868;28;20046;-52
2023/06/21 00:40:14;;;;;;;21.87;10.23;;;23.10;60.70;;;;;;8262170;28;19964;-52
2023/06/21 00:44:15;;;;;;;18.77;9.10;;;23.10;60.70;;;;;;8261886;28;20041;-52
2023/06/21 00:48:15;;;;;;;18.88;9.88;;;23.10;60.70;;;;;;8262019;28;20030;-50
2023/06/21 00:52:17;;;;;;;20.88;9.50;;;23.10;60.70;;;;;;8262069;28;20038;-51
2023/06/21 00:56:18;;;;;;;19.00;9.35;;;23.00;60.70;;;;;;8261974;28;20035;-50
2023/06/21 01:00:22;;;;;;;19.70;9.85;;;23.00;60.60;;;;;;8262578;28;20542;-51
2023/06/21 01:04:29;;;;;;;16.90;8.73;;;23.00;60.60;;;;;;8261924;28;20038;-52
2023/06/21 01:08:41;;;;;;;19.52;9.15;;;23.00;60.60;;;;;;8261666;28;20412;-52
2023/06/21 01:13:04;;;;;;;17.73;8.75;;;23.00;60.50;;;;;;8261692;28;20041;-53
2023/06/21 01:17:07;;;;;;;21.50;9.25;;;23.00;60.50;;;;;;8262329;28;20113;-51
2023/06/21 01:21:10;;;;;;;16.38;8.95;;;23.00;60.50;;;;;;8260043;28;20104;-50
2023/06/21 01:25:47;;;;;;;15.63;8.07;;;23.00;60.50;;;;;;8261529;28;20030;-51
2023/06/21 01:29:55;;;;;;;14.43;8.15;;;23.00;60.50;;;;;;8262042;28;20061;-53
2023/06/21 01:33:57;;;;;;;16.40;8.48;;;23.00;60.50;;;;;;8260245;28;20035;-52
2023/06/21 01:37:58;;;;;;;16.80;8.27;;;23.00;60.50;;;;;;8261368;28;20038;-51
2023/06/21 01:42:00;;;;;;;13.93;8.25;;;23.00;60.50;;;;;;8261253;28;20049;-51
2023/06/21 01:46:02;;;;;;;14.30;8.02;;;22.90;60.40;;;;;;8261257;28;20049;-51
2023/06/21 01:50:08;;;;;;;13.82;7.18;;;23.00;60.50;;;;;;8261112;28;20121;-52
2023/06/21 01:54:09;;;;;;;17.25;7.93;;;23.00;60.50;;;;;;8261332;28;20512;-50
2023/06/21 01:58:12;;;;;;;;;;;22.90;60.40;;;;;;8267140;28;20439;-50
2023/06/21 02:02:14;;;;;;;16.52;8.38;;;22.90;60.40;;;;;;8265796;28;20264;-53
2023/06/21 02:06:20;;;;;;;15.10;7.32;;;22.90;60.40;;;;;;8267236;28;20062;-51
2023/06/21 02:10:21;;;;;;;14.23;7.22;;;22.90;60.40;;;;;;8266495;28;20051;-52
2023/06/21 02:14:22;;;;;;;14.48;7.38;;;22.90;60.40;;;;;;8266621;28;20141;-52
2023/06/21 02:18:23;;;;;;;;;;;22.90;60.40;;;;;;8267102;28;20038;-50
2023/06/21 02:22:24;;;;;;;16.52;6.93;;;22.90;60.30;;;;;;8265059;28;20056;-51
2023/06/21 02:26:25;;;;;;;;;;;22.90;60.30;;;;;;8267194;28;20034;-52
2023/06/21 02:30:26;;;;;;;12.73;6.60;;;22.90;60.30;;;;;;8265785;28;19959;-51
2023/06/21 02:34:26;;;;;;;13.95;7.38;;;22.90;61.10;;;;;;8266714;28;20030;-51
2023/06/21 02:38:27;;;;;;;13.57;7.57;;;22.90;60.40;;;;;;8265844;28;20546;-52
2023/06/21 02:42:28;;;;;;;14.60;7.30;;;22.90;60.40;;;;;;8265835;28;20039;-52
2023/06/21 02:46:29;;;;;;;14.52;6.45;;;22.90;60.40;;;;;;8265636;28;20057;-51
2023/06/21 02:50:29;;;;;;;13.40;7.50;;;22.90;60.40;;;;;;8265441;28;20440;-51
2023/06/21 02:54:30;;;;;;;12.05;6.95;;;22.90;60.40;;;;;;8265286;28;20069;-52
2023/06/21 02:58:31;;;;;;;;;;;22.80;60.30;;;;;;8266475;28;20046;-51
2023/06/21 03:02:34;;;;;;;13.03;6.80;;;22.90;60.30;;;;;;8265046;28;19914;-52
2023/06/21 03:06:35;;;;;;;12.75;6.97;;;22.90;60.30;;;;;;8264735;28;20045;-53
2023/06/21 03:10:36;;;;;;;11.32;6.75;;;22.90;60.30;;;;;;8264537;28;20588;-51
2023/06/21 03:14:37;;;;;;;13.52;6.75;;;22.90;60.20;;;;;;8263452;28;20041;-54
2023/06/21 03:18:38;;;;;;;10.98;6.05;;;22.80;60.10;;;;;;8264692;28;20121;-51
2023/06/21 03:22:39;;;;;;;;;;;22.80;60.10;;;;;;8265060;28;20050;-52
2023/06/21 03:26:40;;;;;;;12.27;5.93;;;22.90;60.10;;;;;;8264594;28;20000;-51
2023/06/21 03:30:41;;;;;;;12.88;6.15;;;22.90;60.10;;;;;;8263978;28;20232;-50
2023/06/21 03:34:41;;;;;;;11.38;5.78;;;22.90;60.10;;;;;;8264197;28;20041;-53
2023/06/21 03:38:42;;;;;;;11.40;6.10;;;22.90;60.10;;;;;;8263940;28;20039;-50
2023/06/21 03:42:44;;;;;;;9.98;6.32;;;22.90;60.10;;;;;;8264060;28;20040;-50
2023/06/21 03:46:44;;;;;;;10.70;5.63;;;22.90;60.90;;;;;;8262293;28;20471;-52
2023/06/21 03:50:45;;;;;;;11.82;6.13;;;22.80;60.00;;;;;;8263258;28;20037;-52
2023/06/21 03:54:45;;;;;;;8.30;5.47;;;22.80;60.00;;;;;;8263501;28;20038;-52
2023/06/21 03:58:46;;;;;;;10.30;5.55;;;22.80;60.00;;;;;;8263902;28;20038;-52
2023/06/21 04:02:47;;;;;;;10.35;6.05;;;22.80;60.00;;;;;;8263106;28;20513;-50
2023/06/21 04:06:48;;;;;;;11.23;6.25;;;22.80;60.10;;;;;;8262968;28;20101;-52
2023/06/21 04:10:48;;;;;;;10.00;5.88;;;22.80;60.10;;;;;;8262826;28;20121;-52
2023/06/21 04:14:49;;;;;;;9.07;5.88;;;22.80;60.10;;;;;;8262755;28;20034;-51
2023/06/21 04:18:50;;;;;;;9.80;5.50;;;22.80;60.00;;;;;;8262185;28;20530;-52
2023/06/21 04:22:50;;;;;;;11.27;6.05;;;22.80;60.00;;;;;;8262723;28;20570;-50
2023/06/21 04:26:51;;;;;;;8.52;5.40;;;22.80;60.00;;;;;;8263177;28;20078;-51
2023/06/21 04:30:52;;;;;;;7.75;5.68;;;22.80;60.00;;;;;;8262281;28;20488;-52
2023/06/21 04:34:53;;;;;;;;;;;22.80;60.00;;;;;;8262751;28;20034;-52
2023/06/21 04:38:53;;;;;;;10.70;5.63;;;22.80;59.90;;;;;;8262484;28;19973;-53
2023/06/21 04:42:54;;;;;;;8.77;5.07;;;22.80;60.00;;;;;;8262091;28;20061;-52
2023/06/21 04:46:55;;;;;;;11.13;5.70;;;22.80;59.90;;;;;;8262056;28;20038;-53
2023/06/21 04:50:56;;;;;;;9.35;5.07;;;22.80;59.90;;;;;;8261875;28;20073;-50
2023/06/21 04:54:59;;;;;;;8.13;5.53;;;22.80;59.90;;;;;;8261888;28;20030;-52
2023/06/21 04:59:00;;;;;;;7.63;4.72;;;22.80;59.90;;;;;;8262284;28;20558;-51
2023/06/21 05:03:01;;;;;;;7.38;4.55;;;22.80;59.90;;;;;;8260605;28;20630;-52
2023/06/21 05:07:01;;;;;;;9.93;5.00;;;22.80;59.80;;;;;;8261593;28;20539;-52
2023/06/21 05:11:02;;;;;;;7.10;4.70;;;22.80;59.80;;;;;;8261404;28;20051;-52
2023/06/21 05:15:05;;;;;;;7.45;4.70;;;22.80;59.80;;;;;;8261477;28;20432;-51
2023/06/21 05:19:05;;;;;;;8.68;5.55;;;22.80;59.80;;;;;;8261465;28;20396;-51
2023/06/21 05:23:06;;;;;;;7.88;5.05;;;22.80;59.80;;;;;;8261820;28;20117;-52
2023/06/21 05:27:07;;;;;;;8.35;5.10;;;22.80;59.90;;;;;;8262208;28;20069;-52
2023/06/21 05:31:08;;;;;;;7.22;4.80;;;22.80;59.90;;;;;;8264741;28;20107;-52
2023/06/21 05:35:09;;;;;;;7.38;4.25;;;22.80;59.90;;;;;;8267998;28;20045;-50
2023/06/21 05:39:10;;;;;;;8.90;5.40;;;22.80;59.90;;;;;;8267942;28;20089;-52
2023/06/21 05:43:10;;;;;;;9.15;4.80;;;22.70;59.80;;;;;;8267823;28;20030;-52
2023/06/21 05:47:11;;;;;;;6.93;4.47;;;22.80;59.90;;;;;;8267546;28;20047;-52
2023/06/21 05:51:12;;;;;;;;;;;22.80;59.90;;;;;;8268049;28;20042;-50
2023/06/21 05:55:13;;;;;;;9.13;4.47;;;22.80;59.80;;;;;;8267305;28;19957;-50
2023/06/21 05:59:13;;;;;;;;;;;22.80;59.90;;;;;;8268563;28;20435;-51
2023/06/21 06:03:14;;;;;;;7.77;4.30;;;22.80;59.80;;;;;;8265901;28;19975;-52
2023/06/21 06:07:15;;;;;;;7.10;4.20;;;22.80;59.80;;;;;;8266718;28;20117;-50
2023/06/21 06:11:15;;;;;;;7.95;5.30;;;22.80;59.80;;;;;;8266898;28;20050;-51
2023/06/21 06:15:16;;;;;;;8.02;5.05;;;22.80;59.80;;;;;;8266654;28;20039;-52
2023/06/21 06:19:17;;;;;;;6.28;4.25;;;22.80;59.80;;;;;;8266720;28;20431;-52
2023/06/21 06:23:17;;;;;;;7.57;4.32;;;22.80;59.70;;;;;;8267498;28;20034;-52
2023/06/21 06:27:18;;;;;;;;;;;22.80;59.80;;;;;;8267626;28;20046;-50
2023/06/21 06:31:21;;;;;;;7.73;4.77;;;22.80;59.70;;;;;;8266058;28;20283;-52
2023/06/21 06:35:22;;;;;;;7.78;4.18;;;22.80;59.70;;;;;;8265847;28;20548;-51
2023/06/21 06:39:22;;;;;;;7.20;4.00;;;22.80;59.80;;;;;;8266106;28;20034;-52
2023/06/21 06:43:23;;;;;;;5.65;3.90;;;22.80;59.70;;;;;;8265466;28;20499;-52
2023/06/21 06:47:24;;;;;;;;;;;22.80;59.80;;;;;;8266255;28;20092;-51
2023/06/21 06:51:24;;;;;;;6.67;2.93;;;22.80;59.80;;;;;;8265522;28;19961;-49
2023/06/21 06:55:25;;;;;;;6.22;4.35;;;22.80;59.80;;;;;;8265641;28;20089;-51
2023/06/21 06:59:25;;;;;;;7.93;4.43;;;22.80;59.80;;;;;;8266297;28;20034;-51
2023/06/21 07:03:26;;;;;;;7.63;4.20;;;22.70;59.80;;;;;;8265339;28;20073;-51
2023/06/21 07:07:27;;;;;;;5.72;3.78;;;22.70;59.80;;;;;;8264959;28;20058;-51
2023/06/21 07:11:27;;;;;;;7.00;4.43;;;22.70;59.80;;;;;;8263885;28;20078;-50
2023/06/21 07:15:28;;;;;;;6.63;4.03;;;22.80;59.80;;;;;;8264703;28;20031;-51
2023/06/21 07:19:29;;;;;;;6.68;4.03;;;22.70;59.80;;;;;;8263697;28;20042;-51
2023/06/21 07:23:30;;;;;;;5.68;4.03;;;22.70;59.80;;;;;;8264470;28;20042;-50
2023/06/21 07:27:30;;;;;;;4.45;3.25;;;22.70;59.70;;;;;;8264992;28;20042;-50
2023/06/21 07:31:34;;;;;;;6.55;3.67;;;22.70;59.70;;;;;;8263257;28;20030;-51
2023/06/21 07:35:35;;;;;;;5.47;3.58;;;22.70;59.70;;;;;;8264200;28;20103;-52
2023/06/21 07:39:35;;;;;;;6.30;3.97;;;22.70;59.70;;;;;;8264130;28;20039;-52
2023/06/21 07:43:36;;;;;;;5.13;3.55;;;22.80;59.80;;;;;;8264161;28;20308;-51
2023/06/21 07:47:37;;;;;;;6.50;3.65;;;22.70;59.70;;;;;;8262609;28;20043;-51
2023/06/21 07:51:38;;;;;;;6.55;3.80;;;22.70;59.70;;;;;;8263097;28;20030;-50
2023/06/21 07:55:38;;;;;;;6.22;3.75;;;22.80;59.80;;;;;;8245781;28;20038;-52
2023/06/21 07:59:39;;;;;;;5.95;4.03;;;22.80;59.70;;;;;;8263937;28;20049;-50
2023/06/21 08:03:40;;;;;;;5.05;3.72;;;22.70;59.70;;;;;;8263858;28;20042;-52
2023/06/21 08:07:41;;;;;;;;;;;22.80;59.70;;;;;;8263729;28;20057;-51
2023/06/21 08:11:42;;;;;;;6.40;3.72;;;22.70;59.70;;;;;;8263056;28;19910;-51
2023/06/21 08:15:42;;;;;;;4.50;3.30;;;22.70;59.70;;;;;;8263019;28;20038;-52
2023/06/21 08:19:43;;;;;;;5.22;3.35;;;22.70;59.70;;;;;;8262713;28;20034;-51
2023/06/21 08:23:44;;;;;;;4.80;3.00;;;22.70;59.70;;;;;;8262677;28;20104;-51
2023/06/21 08:27:45;;;;;;;5.75;3.53;;;22.70;59.80;;;;;;8263189;28;20065;-52
2023/06/21 08:31:46;;;;;;;4.00;3.15;;;22.70;59.70;;;;;;8262248;28;20035;-52
2023/06/21 08:35:46;;;;;;;4.85;3.25;;;22.70;59.70;;;;;;8262446;28;20065;-52
2023/06/21 08:39:47;;;;;;;;;;;22.70;59.70;;;;;;8262597;28;20042;-52
2023/06/21 08:43:47;;;;;;;5.43;3.40;;;22.70;59.70;;;;;;8261972;28;19917;-51
2023/06/21 08:47:51;;;;;;;4.75;2.92;;;22.70;59.70;;;;;;8260926;28;20037;-52
2023/06/21 08:51:54;;;;;;;4.55;3.03;;;22.70;59.70;;;;;;8261895;28;20042;-52
2023/06/21 08:55:58;;;;;;;4.15;3.00;;;22.70;59.70;;;;;;8261898;28;20029;-52
2023/06/21 09:00:04;;;;;;;3.47;2.78;;;22.70;59.70;;;;;;8262271;28;20034;-51
2023/06/21 09:04:09;;;;;;;5.78;3.30;;;22.70;59.70;;;;;;8261734;28;20049;-51
2023/06/21 09:08:10;;;;;;;4.28;3.45;;;22.70;59.70;;;;;;8261317;28;20507;-52
2023/06/21 09:12:13;;;;;;;4.47;3.03;;;22.70;59.60;;;;;;8261677;28;20447;-51
2023/06/21 09:16:14;;;;;;;4.40;3.10;;;22.70;59.70;;;;;;8261401;28;20373;-49
2023/06/21 09:20:16;;;;;;;5.70;3.50;;;22.70;59.70;;;;;;8261472;28;20480;-51
2023/06/21 09:24:17;;;;;;;4.07;3.30;;;22.70;59.70;;;;;;8261321;28;20492;-52
2023/06/21 09:28:18;;;;;;;5.78;3.60;;;22.70;59.70;;;;;;8261954;28;20450;-49
2023/06/21 09:32:18;;;;;;;6.97;3.75;;;22.70;59.70;;;;;;8260970;28;20026;-51
2023/06/21 09:36:19;;;;;;;;;;;22.70;59.70;;;;;;8261727;28;20109;-51
2023/06/21 09:40:19;;;;;;;4.30;3.57;;;22.70;59.60;;;;;;8261212;28;19910;-50
2023/06/21 09:44:21;;;;;;;5.18;3.13;;;22.70;59.70;;;;;;8260997;28;20500;-50
2023/06/21 09:48:21;;;;;;;;;;;22.70;59.70;;;;;;8261510;28;20093;-51
2023/06/21 09:52:22;;;;;;;4.70;3.33;;;22.70;59.70;;;;;;8259800;28;19921;-51
2023/06/21 09:56:23;;;;;;;4.40;3.30;;;22.70;59.70;;;;;;8261597;28;20030;-50
2023/06/21 10:00:23;;;;;;;4.13;3.00;;;22.70;59.70;;;;;;8260738;28;20039;-51
2023/06/21 10:04:25;;;;;;;3.83;2.88;;;22.70;59.70;;;;;;8260743;28;20396;-52
2023/06/21 10:08:28;;;;;;;5.93;3.47;;;22.70;59.70;;;;;;8260792;28;20069;-51
2023/06/21 10:12:29;;;;;;;4.45;3.10;;;22.70;59.70;;;;;;8260845;28;20057;-51
2023/06/21 10:16:32;;;;;;;5.00;3.03;;;22.70;59.60;;;;;;8261591;28;20092;-51
2023/06/21 10:20:35;;;;;;;4.00;3.03;;;22.70;59.60;;;;;;8266346;28;20038;-50
2023/06/21 10:24:41;;;;;;;4.13;3.22;;;22.70;59.60;;;;;;8266131;28;20034;-51
2023/06/21 10:28:45;;;;;;;3.97;3.03;;;22.70;59.60;;;;;;8267237;28;20511;-52
2023/06/21 10:32:47;;;;;;;4.70;2.75;;;22.70;59.60;;;;;;8266037;28;20023;-52
2023/06/21 10:36:51;;;;;;;4.57;2.72;;;22.70;59.60;;;;;;8266070;28;20027;-50
2023/06/21 10:40:54;;;;;;;5.00;3.15;;;22.70;59.60;;;;;;8265827;28;20045;-50
2023/06/21 10:44:58;;;;;;;4.40;2.67;;;22.70;59.60;;;;;;8265709;28;20030;-51
2023/06/21 10:49:00;;;;;;;2.90;2.47;;;22.70;59.60;;;;;;8265674;28;20030;-52
2023/06/21 10:53:02;;;;;;;4.68;2.92;;;22.70;59.60;;;;;;8265653;28;20498;-51
2023/06/21 10:57:04;;;;;;;3.42;2.38;;;22.70;59.60;;;;;;8265968;28;20546;-51
2023/06/21 11:01:04;;;;;;;;;;;22.70;59.60;;;;;;8265784;28;20488;-52
2023/06/21 11:05:19;;;;;;;3.15;2.60;;;22.70;59.60;;;;;;8265650;28;20390;-51
2023/06/21 11:09:20;;;;;;;5.03;2.80;;;22.70;59.70;;;;;;8264787;28;20129;-49
2023/06/21 11:13:38;;;;;;;3.25;2.50;;;22.70;59.60;;;;;;8265140;28;20665;-51
2023/06/21 11:17:39;;;;;;;3.33;2.40;;;22.70;59.60;;;;;;8264878;28;20112;-51
2023/06/21 11:21:47;;;;;;;4.05;2.83;;;22.70;59.60;;;;;;8264697;28;20089;-50
2023/06/21 11:26:03;;;;;;;3.85;2.70;;;22.70;59.60;;;;;;8264445;28;20031;-51
2023/06/21 11:30:09;;;;;;;3.08;2.78;;;22.70;59.60;;;;;;8265026;28;20042;-51
2023/06/21 11:34:23;;;;;;;3.88;2.85;;;22.70;59.60;;;;;;8263203;28;20472;-50
2023/06/21 11:38:24;;;;;;;4.10;2.83;;;22.70;59.60;;;;;;8264170;28;20022;-52
2023/06/21 11:42:26;;;;;;;3.42;2.65;;;22.70;59.60;;;;;;8264233;28;20027;-51
2023/06/21 11:46:31;;;;;;;3.65;2.83;;;22.70;59.50;;;;;;8264330;28;20039;-51
2023/06/21 11:50:35;;;;;;;4.35;2.70;;;22.70;59.50;;;;;;8263905;28;20428;-51
2023/06/21 11:54:36;;;;;;;3.13;2.60;;;22.80;59.50;;;;;;8264034;28;20043;-51
2023/06/21 11:58:37;;;;;;;3.58;2.83;;;22.70;59.50;;;;;;8263948;28;20106;-51
2023/06/21 12:02:38;;;;;;;3.42;2.28;;;22.80;59.50;;;;;;8262019;28;20093;-50
2023/06/21 12:06:38;;;;;;;4.15;2.58;;;22.70;59.40;;;;;;8263551;28;20034;-51
2023/06/21 12:10:39;;;;;;;3.05;2.15;;;22.80;59.40;;;;;;8263001;28;20100;-51
2023/06/21 12:14:40;;;;;;;;;;;22.80;59.40;;;;;;8263561;28;20156;-51
2023/06/21 12:18:41;;;;;;;3.20;2.73;;;22.80;59.40;;;;;;8262930;28;19910;-50
2023/06/21 12:22:42;;;;;;;4.50;2.95;;;22.70;59.40;;;;;;8262855;28;20062;-50
2023/06/21 12:26:50;;;;;;;2.63;2.17;;;22.80;59.50;;;;;;8263314;28;20041;-50
2023/06/21 12:31:06;;;;;;;3.30;2.45;;;22.80;59.40;;;;;;8262556;28;20042;-51
2023/06/21 12:35:08;;;;;;;3.00;2.25;;;22.70;59.40;;;;;;8262471;28;20499;-52
2023/06/21 12:39:09;;;;;;;2.55;2.17;;;22.80;59.40;;;;;;8261364;28;20034;-51
2023/06/21 12:43:09;;;;;;;3.53;2.67;;;22.80;59.40;;;;;;8262803;28;20049;-51
2023/06/21 12:47:10;;;;;;;3.28;2.40;;;22.70;59.40;;;;;;8261038;28;20034;-52
2023/06/21 12:51:22;;;;;;;2.75;2.22;;;22.80;59.40;;;;;;8262216;28;20038;-51
2023/06/21 12:55:22;;;;;;;4.15;2.53;;;22.80;59.40;;;;;;8261784;28;20549;-51
2023/06/21 12:59:23;;;;;;;2.83;2.20;;;22.80;59.40;;;;;;8262471;28;20373;-51
2023/06/21 13:03:24;;;;;;;4.30;2.47;;;22.80;59.40;;;;;;8261085;28;20125;-51
2023/06/21 13:07:24;;;;;;;2.80;2.30;;;22.80;59.40;;;;;;8261666;28;20064;-52
2023/06/21 13:11:26;;;;;;;2.50;2.15;;;22.80;59.30;;;;;;8261754;28;20042;-53
2023/06/21 13:15:26;;;;;;;3.60;2.40;;;22.80;59.30;;;;;;8261602;28;20023;-52
2023/06/21 13:19:27;;;;;;;2.53;2.00;;;22.80;59.30;;;;;;8261480;28;20041;-51
2023/06/21 13:23:28;;;;;;;2.83;2.13;;;22.80;59.40;;;;;;8261580;28;20578;-52
2023/06/21 13:27:29;;;;;;;2.20;2.00;;;22.80;59.40;;;;;;8262272;28;20401;-52
2023/06/21 13:31:30;;;;;;;2.67;2.08;;;22.70;59.40;;;;;;8261400;28;20035;-50
2023/06/21 13:35:30;;;;;;;2.90;2.40;;;22.70;59.40;;;;;;8261495;28;20092;-50
2023/06/21 13:39:33;;;;;;;3.45;2.55;;;22.70;59.40;;;;;;8261171;28;20477;-52
2023/06/21 13:43:33;;;;;;;2.60;2.03;;;22.70;59.40;;;;;;8261301;28;20038;-50
2023/06/21 13:47:34;;;;;;;3.80;2.58;;;22.70;59.40;;;;;;8261353;28;20117;-50
2023/06/21 13:51:36;;;;;;;2.38;1.90;;;22.70;59.40;;;;;;8263639;28;20026;-51
2023/06/21 13:55:36;;;;;;;3.03;2.17;;;22.70;59.40;;;;;;8267659;28;20495;-51
2023/06/21 13:59:37;;;;;;;3.38;2.50;;;22.70;59.90;;;;;;8267946;28;20439;-48
2023/06/21 14:03:37;;;;;;;;;;;22.70;59.40;;;;;;8267468;28;20030;-51
2023/06/21 14:07:40;;;;;;;2.47;2.00;;;22.70;59.30;;;;;;8266847;28;19924;-50
2023/06/21 14:11:40;;;;;;;2.30;2.10;;;22.70;59.30;;;;;;8266814;28;20708;-50
2023/06/21 14:15:41;;;;;;;2.25;2.05;;;22.70;59.30;;;;;;8266532;28;20105;-50
2023/06/21 14:19:42;;;;;;;3.72;2.28;;;22.80;59.30;;;;;;8265593;28;20113;-50
2023/06/21 14:23:42;;;;;;;3.45;2.33;;;22.80;59.30;;;;;;8266257;28;20046;-50
2023/06/21 14:27:43;;;;;;;2.33;2.13;;;22.80;59.30;;;;;;8266933;28;20030;-51
2023/06/21 14:31:44;;;;;;;2.05;1.52;;;22.80;59.30;;;;;;8266782;28;20033;-51
2023/06/21 14:35:44;;;;;;;2.13;1.73;;;22.80;59.30;;;;;;8265943;28;20065;-52
2023/06/21 14:39:45;;;;;;;3.75;2.33;;;22.80;59.30;;;;;;8265977;28;20030;-51
2023/06/21 14:43:46;;;;;;;2.55;1.88;;;22.70;59.30;;;;;;8265873;28;20074;-51
2023/06/21 14:47:47;;;;;;;2.70;2.22;;;22.70;59.30;;;;;;8267474;28;20092;-52
2023/06/21 14:51:47;;;;;;;3.03;2.25;;;22.70;59.30;;;;;;8266992;28;20038;-52
2023/06/21 14:55:48;;;;;;;2.22;1.63;;;22.70;59.20;;;;;;8267342;28;20031;-52
2023/06/21 14:59:52;;;;;;;2.58;2.15;;;22.80;59.30;;;;;;8268211;28;20031;-51
2023/06/21 15:03:52;;;;;;;2.70;1.92;;;22.80;59.30;;;;;;8266036;28;20516;-50
2023/06/21 15:07:53;;;;;;;2.97;2.20;;;22.80;59.30;;;;;;8267205;28;20423;-51
2023/06/21 15:11:53;;;;;;;;;;;22.80;59.30;;;;;;8266627;28;20045;-52
2023/06/21 15:15:55;;;;;;;2.80;1.90;;;22.80;59.30;;;;;;8266911;28;19909;-52
2023/06/21 15:19:56;;;;;;;2.25;1.60;;;22.80;59.30;;;;;;8266445;28;20034;-50
2023/06/21 15:23:56;;;;;;;1.58;1.48;;;22.80;59.30;;;;;;8265993;28;20034;-50
2023/06/21 15:28:01;;;;;;;2.60;2.10;;;22.70;59.20;;;;;;8266960;28;20061;-52
2023/06/21 15:32:01;;;;;;;2.15;1.80;;;22.80;59.30;;;;;;8266208;28;20023;-51
2023/06/21 15:36:04;;;;;;;2.65;2.05;;;22.70;59.30;;;;;;8266793;28;20046;-52
2023/06/21 15:40:08;;;;;;;2.00;1.40;;;22.70;59.30;;;;;;8265307;28;20066;-51
2023/06/21 15:44:09;;;;;;;2.33;1.58;;;22.70;59.40;;;;;;8266452;28;20034;-50
2023/06/21 15:48:09;;;;;;;1.92;1.58;;;22.70;59.30;;;;;;8265027;28;20080;-51
2023/06/21 15:52:10;;;;;;;2.10;1.90;;;22.70;59.30;;;;;;8266341;28;20381;-51
2023/06/21 15:56:11;;;;;;;2.20;1.80;;;22.70;59.30;;;;;;8263404;28;20038;-50
2023/06/21 16:00:12;;;;;;;2.33;1.88;;;22.70;59.30;;;;;;8266512;28;20484;-51
2023/06/21 16:04:13;;;;;;;2.42;1.92;;;22.70;59.30;;;;;;8265220;28;20040;-52
2023/06/21 16:08:13;;;;;;;2.72;2.38;;;22.70;59.20;;;;;;8263964;28;20053;-49
2023/06/21 16:12:14;;;;;;;2.65;1.90;;;22.70;59.20;;;;;;8264980;28;20034;-53
2023/06/21 16:16:16;;;;;;;2.30;1.70;;;22.70;59.30;;;;;;8264421;28;20384;-52
2023/06/21 16:20:16;;;;;;;3.10;2.00;;;22.70;59.20;;;;;;8265630;28;20045;-51
2023/06/21 16:24:19;;;;;;;2.05;1.65;;;22.70;59.20;;;;;;8263821;28;20034;-51
2023/06/21 16:28:20;;;;;;;2.42;1.80;;;22.70;59.20;;;;;;8265737;28;20354;-52
2023/06/21 16:32:20;;;;;;;2.15;1.52;;;22.70;59.20;;;;;;8264274;28;20022;-52
2023/06/21 16:36:21;;;;;;;3.30;2.10;;;22.70;59.20;;;;;;8264990;28;20034;-51
2023/06/21 16:40:22;;;;;;;2.95;1.92;;;22.70;59.20;;;;;;8263956;28;20033;-51
2023/06/21 16:44:22;;;;;;;1.65;1.55;;;22.80;59.20;;;;;;8264529;28;20065;-53
2023/06/21 16:48:23;;;;;;;2.75;1.75;;;22.80;59.20;;;;;;8264267;28;20034;-51
2023/06/21 16:52:24;;;;;;;2.72;1.70;;;22.80;59.20;;;;;;8264060;28;20034;-51
2023/06/21 16:56:24;;;;;;;2.65;1.90;;;22.80;59.20;;;;;;8265107;28;20010;-50
2023/06/21 17:00:27;;;;;;;2.17;1.65;;;22.70;59.20;;;;;;8295886;28;20483;-53
2023/06/21 17:04:27;;;;;;;2.13;1.85;;;22.70;59.50;;;;;;8296768;28;20415;-51
2023/06/21 17:08:28;;;;;;;1.95;1.48;;;22.70;59.30;;;;;;8295399;28;20064;-51
2023/06/21 17:12:29;;;;;;;;;;;22.70;59.30;;;;;;8297172;28;20041;-51
2023/06/21 17:16:30;;;;;;;2.20;1.80;;;22.70;59.30;;;;;;8295396;28;19905;-52
2023/06/21 17:20:31;;;;;;;2.28;1.73;;;22.70;59.30;;;;;;8296378;28;20041;-51
2023/06/21 17:24:32;;;;;;;1.73;1.50;;;22.70;59.20;;;;;;8296129;28;20034;-52
2023/06/21 17:28:32;;;;;;;2.28;1.60;;;22.70;59.20;;;;;;8285717;28;20084;-51
2023/06/21 17:32:33;;;;;;;2.17;1.65;;;22.70;59.20;;;;;;8269968;28;20034;-51
2023/06/21 17:36:33;;;;;;;2.13;1.85;;;22.70;59.20;;;;;;8270075;28;20042;-52
2023/06/21 17:40:34;;;;;;;1.60;1.50;;;22.70;59.20;;;;;;8270390;28;20448;-52
2023/06/21 17:44:35;;;;;;;2.22;1.80;;;22.70;59.20;;;;;;8268949;28;20619;-50
2023/06/21 17:48:38;;;;;;;;;;;22.70;59.20;;;;;;8270531;28;20037;-51
2023/06/21 17:52:38;;;;;;;2.20;1.55;;;22.70;59.20;;;;;;8267573;28;19968;-51
2023/06/21 17:56:39;;;;;;;2.03;1.63;;;22.70;59.20;;;;;;8272800;28;20504;-49
2023/06/21 18:00:40;;;;;;;1.70;1.48;;;22.70;59.20;;;;;;8301001;28;20476;-51
2023/06/21 18:04:40;;;;;;;1.90;1.77;;;22.70;59.20;;;;;;8301943;28;20036;-51
2023/06/21 18:08:41;;;;;;;1.95;1.67;;;22.80;59.20;;;;;;8301027;28;20053;-52
2023/06/21 18:12:42;;;;;;;2.85;2.45;;;22.70;59.20;;;;;;8300786;28;20034;-52
2023/06/21 18:16:42;;;;;;;;;;;22.70;59.20;;;;;;8301646;28;20108;-51
2023/06/21 18:20:43;;;;;;;2.47;1.67;;;22.70;59.20;;;;;;8301058;28;19914;-51
2023/06/21 18:24:43;;;;;;;;;;;22.70;59.20;;;;;;8301993;28;20041;-51
2023/06/21 18:28:44;;;;;;;2.37;1.70;;;22.70;59.30;;;;;;8279434;28;20363;-51
2023/06/21 18:32:45;;;;;;;1.60;1.40;;;22.70;59.30;;;;;;8269199;28;20030;-51
2023/06/21 18:36:46;;;;;;;2.30;1.80;;;22.70;59.30;;;;;;8266978;28;20110;-51
2023/06/21 18:40:46;;;;;;;1.73;1.27;;;22.70;59.20;;;;;;8268580;28;20050;-51
2023/06/21 18:44:47;;;;;;;;;;;22.70;59.20;;;;;;8267939;28;20492;-52
2023/06/21 18:48:51;;;;;;;1.90;1.40;;;22.70;59.20;;;;;;8268177;28;19921;-52
2023/06/21 18:52:52;;;;;;;1.70;1.40;;;22.70;59.20;;;;;;8267273;28;20080;-50
2023/06/21 18:56:53;;;;;;;1.95;1.50;;;22.70;59.20;;;;;;8273240;28;20038;-52
2023/06/21 19:00:53;;;;;;;1.80;1.48;;;22.70;59.20;;;;;;8299406;28;20041;-51
2023/06/21 19:04:54;;;;;;;1.35;1.25;;;22.70;59.20;;;;;;8299965;28;20083;-52
2023/06/21 19:08:55;;;;;;;2.05;1.58;;;22.70;59.10;;;;;;8299740;28;20455;-51
2023/06/21 19:12:55;;;;;;;1.95;1.30;;;22.70;59.10;;;;;;8298792;28;20041;-52
2023/06/21 19:16:56;;;;;;;2.10;1.60;;;22.70;59.20;;;;;;8299873;28;20029;-51
2023/06/21 19:20:56;;;;;;;;;;;22.70;59.10;;;;;;8298720;28;20042;-50
2023/06/21 19:24:59;;;;;;;1.87;1.47;;;22.70;59.10;;;;;;8299617;28;19960;-52
2023/06/21 19:29:00;;;;;;;1.88;1.20;;;22.70;59.10;;;;;;8276522;28;20515;-52
2023/06/21 19:33:02;;;;;;;2.03;1.48;;;22.70;59.10;;;;;;8267099;28;20397;-51
2023/06/21 19:37:02;;;;;;;1.75;1.42;;;22.70;59.10;;;;;;8266194;28;20034;-53
2023/06/21 19:41:03;;;;;;;1.70;1.30;;;22.70;59.10;;;;;;8266247;28;20088;-50
2023/06/21 19:45:04;;;;;;;;;;;22.70;59.20;;;;;;8266359;28;20038;-52
2023/06/21 19:49:05;;;;;;;1.63;1.47;;;22.70;59.20;;;;;;8265538;28;19964;-52
2023/06/21 19:53:06;;;;;;;1.73;1.63;;;22.70;59.20;;;;;;8266433;28;20034;-51
2023/06/21 19:57:06;;;;;;;1.42;1.13;;;22.70;59.20;;;;;;8271455;28;20538;-52
2023/06/21 20:01:07;;;;;;;1.58;1.25;;;22.70;59.70;;;;;;8298688;28;20030;-52
2023/06/21 20:05:09;;;;;;;1.85;1.25;;;22.70;59.20;;;;;;8297244;28;20398;-51
2023/06/21 20:09:10;;;;;;;1.50;1.40;;;22.70;59.20;;;;;;8297807;28;20129;-51
2023/06/21 20:13:11;;;;;;;1.48;1.33;;;22.70;59.20;;;;;;8296752;28;20026;-52
2023/06/21 20:17:11;;;;;;;;;;;22.70;59.10;;;;;;8298275;28;20039;-51
2023/06/21 20:21:12;;;;;;;1.57;1.43;;;22.70;59.10;;;;;;8296954;28;20311;-51
2023/06/21 20:25:13;;;;;;;1.67;1.40;;;22.70;59.10;;;;;;8297088;28;20042;-52
2023/06/21 20:29:14;;;;;;;;;;;22.70;59.10;;;;;;8274560;28;20038;-49
2023/06/21 20:33:14;;;;;;;1.63;1.20;;;22.70;59.10;;;;;;8263755;28;19928;-52
2023/06/21 20:37:15;;;;;;;1.70;1.40;;;22.70;59.10;;;;;;8264799;28;20037;-51
2023/06/21 20:41:16;;;;;;;1.23;1.13;;;22.70;59.20;;;;;;8263690;28;20429;-51
2023/06/21 20:45:24;;;;;;;;;;;22.70;59.10;;;;;;8265325;28;20034;-51
2023/06/21 20:49:27;;;;;;;1.50;1.20;;;22.70;59.10;;;;;;8263102;28;20012;-51
2023/06/21 20:53:28;;;;;;;1.48;1.30;;;22.70;59.10;;;;;;8264514;28;20038;-52
2023/06/21 20:57:29;;;;;;;1.55;1.10;;;22.70;59.10;;;;;;8263156;28;20041;-51
2023/06/21 21:01:38;;;;;;;1.67;1.30;;;22.70;59.10;;;;;;8263450;28;20047;-52
2023/06/21 21:05:38;;;;;;;1.15;1.02;;;22.70;59.20;;;;;;8264449;28;20032;-52
2023/06/21 21:09:39;;;;;;;1.20;1.10;;;22.70;59.20;;;;;;8262390;28;20073;-51